Terminal Aerodrome Forecast
Issued by NWS Rapid City, SD

Home | Current Version | Previous Version | Graphics & Text | Print | Product List | Glossary On
Versions: 1 2 3 4 5 6 7 8 9 10 11 12 13 14 15 16 17 18
000
FTUS43 KUNR 232300
TAFRAP
TAF
KRAP 232320Z 2400/2424 30007KT P6SM FEW200
     FM241800 32027G45KT P6SM SCT100=

USA.gov is the U.S. government's official web portal to all federal, state and local government web resources and services.